createdAt,value
2023-01-10T00:00:10.853Z,0.60
2023-01-10T00:02:38.851Z,0.50
2023-01-10T00:05:07.650Z,0.90
2023-01-10T00:07:36.594Z,0.60
2023-01-10T00:10:04.971Z,0.80
2023-01-10T00:12:50.503Z,0.60
2023-01-10T00:15:19.856Z,0.70
2023-01-10T00:17:47.793Z,0.90
2023-01-10T00:20:16.398Z,0.73
2023-01-10T00:22:45.145Z,0.83
2023-01-10T00:25:13.025Z,0.80
2023-01-10T00:27:41.283Z,0.70
2023-01-10T00:30:14.083Z,0.50
2023-01-10T00:32:44.824Z,0.83
2023-01-10T00:35:13.539Z,0.70
2023-01-10T00:37:41.707Z,0.70
2023-01-10T00:40:12.390Z,0.80
2023-01-10T00:42:57.926Z,0.70
2023-01-10T00:45:27.015Z,0.57
2023-01-10T00:47:56.491Z,0.50
2023-01-10T00:50:24.354Z,0.70
2023-01-10T00:52:52.395Z,0.70
2023-01-10T00:55:20.302Z,0.67
2023-01-10T00:57:48.247Z,0.80
2023-01-10T01:00:16.834Z,0.70
2023-01-10T01:02:45.225Z,0.80
2023-01-10T01:05:14.806Z,0.77
2023-01-10T01:07:42.891Z,0.97
2023-01-10T01:10:29.917Z,0.80
2023-01-10T01:13:00.280Z,0.80
2023-01-10T01:15:28.933Z,0.80
2023-01-10T01:17:56.933Z,0.80
2023-01-10T01:20:26.309Z,0.77
2023-01-10T01:22:54.292Z,0.90
2023-01-10T01:25:22.230Z,0.90
2023-01-10T01:27:50.173Z,0.70
2023-01-10T01:30:18.305Z,0.73
2023-01-10T01:32:46.180Z,1.10
2023-01-10T01:35:15.969Z,1.10
2023-01-10T01:37:45.838Z,1.00
2023-01-10T01:40:14.949Z,1.33
2023-01-10T01:42:43.252Z,1.10
2023-01-10T01:45:40.094Z,1.20
2023-01-10T01:48:17.379Z,1.20
2023-01-10T01:50:49.779Z,1.20
2023-01-10T01:53:23.812Z,1.20
2023-01-10T01:55:55.016Z,1.17
2023-01-10T01:58:29.311Z,1.27
2023-01-10T02:00:58.436Z,0.97
2023-01-10T02:03:27.247Z,1.20
2023-01-10T02:05:55.310Z,1.50
2023-01-10T02:08:24.678Z,1.30
2023-01-10T02:10:56.896Z,1.00
2023-01-10T02:13:26.801Z,1.33
2023-01-10T02:15:54.737Z,1.00
2023-01-10T02:18:23.999Z,1.13
2023-01-10T02:21:17.684Z,1.17
2023-01-10T02:24:18.334Z,1.10
2023-01-10T02:27:11.333Z,1.20
2023-01-10T02:30:04.084Z,1.20
2023-01-10T02:32:47.937Z,1.10
2023-01-10T02:35:41.993Z,1.03
2023-01-10T02:38:15.139Z,1.37
2023-01-10T02:40:52.975Z,1.27
2023-01-10T02:43:24.866Z,1.20
2023-01-10T02:45:58.288Z,1.03
2023-01-10T02:48:27.546Z,0.70
2023-01-10T02:51:02.612Z,0.90
2023-01-10T02:53:55.107Z,1.10
2023-01-10T02:56:40.698Z,1.00
2023-01-10T02:59:42.958Z,1.40
2023-01-10T03:02:24.719Z,0.93
2023-01-10T03:04:58.185Z,1.00
2023-01-10T03:07:32.735Z,1.10
2023-01-10T03:10:07.018Z,1.00
2023-01-10T03:12:42.667Z,1.00
2023-01-10T03:15:14.446Z,1.13
2023-01-10T03:17:45.123Z,1.17
2023-01-10T03:20:15.372Z,1.00
2023-01-10T03:22:44.294Z,1.10
2023-01-10T03:25:15.691Z,1.23
2023-01-10T03:27:52.684Z,1.07
2023-01-10T03:30:28.013Z,1.27
2023-01-10T03:32:57.898Z,1.60
2023-01-10T03:35:36.377Z,1.20
2023-01-10T03:38:11.012Z,1.33
2023-01-10T03:40:48.602Z,1.43
2023-01-10T03:43:40.086Z,1.17
2023-01-10T03:46:12.406Z,1.20
2023-01-10T03:48:44.642Z,1.27
2023-01-10T03:51:14.813Z,1.40
2023-01-10T03:53:42.708Z,1.47
2023-01-10T03:56:14.387Z,1.40
2023-01-10T03:58:42.391Z,1.33
2023-01-10T04:01:10.245Z,1.40
2023-01-10T04:03:38.154Z,1.20
2023-01-10T04:06:06.496Z,1.43
2023-01-10T04:08:35.628Z,1.60
2023-01-10T04:11:04.262Z,1.57
2023-01-10T04:13:32.036Z,1.50
2023-01-10T04:16:01.097Z,1.43
2023-01-10T04:18:28.932Z,1.53
2023-01-10T04:20:56.710Z,1.57
2023-01-10T04:23:24.513Z,1.73
2023-01-10T04:25:53.635Z,1.60
2023-01-10T04:28:23.805Z,1.80
2023-01-10T04:30:52.218Z,1.23
2023-01-10T04:33:20.017Z,1.60
2023-01-10T04:35:49.219Z,1.87
2023-01-10T04:38:20.313Z,1.90
2023-01-10T04:40:55.635Z,1.80
2023-01-10T04:43:24.088Z,1.53
2023-01-10T04:45:52.300Z,1.93
2023-01-10T04:48:20.394Z,1.60
2023-01-10T04:50:51.631Z,1.37
2023-01-10T04:53:19.486Z,2.27
2023-01-10T04:55:47.318Z,2.30
2023-01-10T04:58:16.457Z,2.33
2023-01-10T05:00:44.216Z,2.50
2023-01-10T05:03:12.092Z,2.20
2023-01-10T05:05:39.908Z,1.90
2023-01-10T05:08:07.731Z,1.67
2023-01-10T05:10:35.579Z,1.90
2023-01-10T05:13:03.354Z,1.50
2023-01-10T05:15:32.541Z,1.40
2023-01-10T05:18:01.867Z,1.70
2023-01-10T05:20:29.650Z,1.37
2023-01-10T05:22:57.469Z,1.20
2023-01-10T05:25:25.241Z,1.60
2023-01-10T05:27:53.013Z,1.50
2023-01-10T05:30:21.035Z,1.67
2023-01-10T05:32:50.148Z,1.60
2023-01-10T05:35:18.210Z,1.50
2023-01-10T05:37:45.951Z,1.53
2023-01-10T05:40:14.331Z,1.90
2023-01-10T05:42:42.938Z,1.60
2023-01-10T05:45:11.618Z,1.80
2023-01-10T05:47:39.403Z,1.70
2023-01-10T05:50:09.446Z,1.50
2023-01-10T05:52:37.265Z,1.90
2023-01-10T05:55:05.806Z,1.83
2023-01-10T05:57:33.644Z,1.40
2023-01-10T06:00:02.396Z,1.83
2023-01-10T06:02:31.559Z,1.43
2023-01-10T06:04:59.440Z,1.50
2023-01-10T06:07:28.561Z,1.60
2023-01-10T06:09:56.370Z,2.13
2023-01-10T06:12:24.207Z,1.60
2023-01-10T06:14:51.947Z,1.77
2023-01-10T06:17:19.693Z,1.70
2023-01-10T06:19:47.496Z,1.50
2023-01-10T06:22:15.354Z,1.60
2023-01-10T06:24:44.477Z,1.73
2023-01-10T06:27:12.304Z,1.80
2023-01-10T06:29:40.106Z,1.40
2023-01-10T06:32:07.906Z,1.43
2023-01-10T06:34:35.981Z,1.43
2023-01-10T06:37:03.858Z,1.27
2023-01-10T06:39:31.662Z,1.33
2023-01-10T06:42:00.810Z,1.33
2023-01-10T06:44:28.651Z,1.40
2023-01-10T06:46:56.434Z,1.30
2023-01-10T06:49:24.231Z,1.20
2023-01-10T06:51:51.954Z,1.50
2023-01-10T06:54:19.850Z,1.73
2023-01-10T06:56:48.696Z,1.30
2023-01-10T06:59:17.938Z,1.30
2023-01-10T07:01:45.954Z,1.50
2023-01-10T07:04:13.901Z,1.20
2023-01-10T07:06:42.446Z,1.40
2023-01-10T07:09:10.236Z,1.23
2023-01-10T07:11:38.075Z,1.23
2023-01-10T07:14:05.879Z,1.20
2023-01-10T07:16:34.965Z,1.10
2023-01-10T07:19:02.884Z,1.10
2023-01-10T07:21:30.718Z,1.20
2023-01-10T07:23:59.046Z,1.10
2023-01-10T07:26:27.891Z,1.50
2023-01-10T07:28:55.662Z,1.93
2023-01-10T07:31:24.382Z,2.23
2023-01-10T07:33:54.013Z,2.80
2023-01-10T07:36:22.329Z,3.80
2023-01-10T07:38:50.181Z,2.90
2023-01-10T07:41:19.487Z,2.70
2023-01-10T07:43:47.237Z,2.23
2023-01-10T07:46:15.049Z,1.90
2023-01-10T07:48:43.215Z,1.63
2023-01-10T07:51:12.404Z,1.50
2023-01-10T07:53:40.545Z,1.40
2023-01-10T07:56:08.632Z,1.53
2023-01-10T07:58:36.726Z,1.50
2023-01-10T08:01:05.952Z,1.40
2023-01-10T08:03:34.191Z,1.60
2023-01-10T08:06:03.799Z,1.50
2023-01-10T08:08:34.418Z,1.40
2023-01-10T08:11:03.447Z,1.43
2023-01-10T08:13:31.785Z,1.23
2023-01-10T08:16:00.211Z,1.70
2023-01-10T08:18:28.773Z,1.70
2023-01-10T08:20:56.597Z,1.60
2023-01-10T08:23:24.583Z,1.67
2023-01-10T08:25:54.228Z,1.70
2023-01-10T08:28:22.072Z,1.30
2023-01-10T08:30:55.222Z,1.30
2023-01-10T08:33:23.729Z,1.40
2023-01-10T08:35:52.656Z,1.57
2023-01-10T08:38:20.511Z,1.47
2023-01-10T08:40:48.311Z,1.23
2023-01-10T08:43:17.740Z,1.60
2023-01-10T08:45:45.618Z,1.43
2023-01-10T08:48:14.102Z,1.23
2023-01-10T08:50:42.079Z,1.40
2023-01-10T08:53:10.690Z,1.20
2023-01-10T08:55:38.903Z,1.10
2023-01-10T08:58:06.704Z,1.50
2023-01-10T09:00:35.845Z,1.30
2023-01-10T09:03:03.762Z,2.03
2023-01-10T09:05:31.612Z,1.63
2023-01-10T09:08:00.513Z,1.87
2023-01-10T09:10:28.763Z,1.57
2023-01-10T09:12:59.628Z,1.70
2023-01-10T09:15:29.393Z,1.83
2023-01-10T09:18:00.569Z,1.40
2023-01-10T09:20:29.959Z,1.53
2023-01-10T09:22:59.471Z,1.97
2023-01-10T09:25:27.300Z,2.00
2023-01-10T09:27:59.055Z,1.67
2023-01-10T09:30:27.439Z,1.60
2023-01-10T09:32:56.435Z,1.50
2023-01-10T09:35:27.007Z,1.57
2023-01-10T09:37:55.813Z,1.80
2023-01-10T09:40:32.490Z,2.27
2023-01-10T09:43:11.339Z,1.87
2023-01-10T09:45:46.999Z,1.70
2023-01-10T09:48:25.142Z,2.33
2023-01-10T09:51:11.514Z,2.27
2023-01-10T09:53:43.091Z,2.40
2023-01-10T09:56:11.609Z,1.70
2023-01-10T09:58:39.939Z,1.80
2023-01-10T10:01:12.386Z,1.70
2023-01-10T10:03:47.276Z,1.90
2023-01-10T10:06:16.607Z,1.70
2023-01-10T10:08:47.097Z,1.70
2023-01-10T10:11:43.015Z,2.13
2023-01-10T10:14:21.981Z,2.00
2023-01-10T10:17:07.072Z,1.57
2023-01-10T10:19:48.951Z,1.80
2023-01-10T10:22:25.205Z,1.70
2023-01-10T10:25:02.282Z,2.17
2023-01-10T10:27:37.112Z,1.60
2023-01-10T10:30:32.974Z,2.80
2023-01-10T10:33:24.943Z,1.97
2023-01-10T10:35:59.234Z,2.37
2023-01-10T10:38:32.626Z,1.90
2023-01-10T10:41:01.248Z,1.93
2023-01-10T10:43:33.194Z,1.90
2023-01-10T10:46:05.176Z,2.00
2023-01-10T10:48:37.543Z,2.00
2023-01-10T10:51:11.387Z,1.87
2023-01-10T10:53:40.569Z,1.37
2023-01-10T10:56:14.693Z,1.70
2023-01-10T10:58:45.601Z,1.83
2023-01-10T11:01:14.849Z,1.93
2023-01-10T11:03:48.131Z,1.97
2023-01-10T11:06:17.356Z,1.50
2023-01-10T11:08:48.322Z,1.90
2023-01-10T11:11:21.991Z,2.10
2023-01-10T11:13:55.413Z,2.37
2023-01-10T11:16:29.534Z,1.67
2023-01-10T11:19:19.144Z,1.60
2023-01-10T11:21:50.367Z,1.73
2023-01-10T11:24:38.930Z,3.10
2023-01-10T11:27:17.283Z,3.40
2023-01-10T11:29:48.244Z,2.20
2023-01-10T11:32:19.514Z,2.00
2023-01-10T11:34:54.184Z,2.00
2023-01-10T11:37:25.117Z,1.37
2023-01-10T11:40:16.024Z,1.77
2023-01-10T11:42:44.218Z,1.63
2023-01-10T11:45:23.820Z,1.20
2023-01-10T11:47:55.312Z,1.30
2023-01-10T11:50:26.352Z,1.20
2023-01-10T11:52:55.568Z,1.83
2023-01-10T11:55:27.939Z,2.50
2023-01-10T11:57:59.156Z,1.80
2023-01-10T12:00:34.011Z,2.17
2023-01-10T12:03:02.334Z,2.97
2023-01-10T12:05:30.397Z,1.53
2023-01-10T12:07:59.854Z,1.93
2023-01-10T12:10:29.912Z,1.70
2023-01-10T12:12:59.991Z,1.23
2023-01-10T12:15:30.318Z,1.47
2023-01-10T12:18:00.237Z,1.60
2023-01-10T12:20:32.103Z,1.77
2023-01-10T12:23:04.389Z,1.37
2023-01-10T12:25:37.426Z,1.50
2023-01-10T12:28:11.024Z,1.40
2023-01-10T12:30:43.417Z,2.07
2023-01-10T12:33:15.466Z,1.40
2023-01-10T12:35:49.988Z,1.63
2023-01-10T12:38:25.635Z,1.20
2023-01-10T12:40:59.794Z,1.13
2023-01-10T12:43:53.706Z,0.90
2023-01-10T12:46:52.902Z,1.40
2023-01-10T12:49:20.012Z,1.50
2023-01-10T12:51:50.252Z,1.13
2023-01-10T12:54:22.035Z,1.10
2023-01-10T12:56:52.031Z,1.23
2023-01-10T12:59:36.484Z,1.00
2023-01-10T13:02:08.848Z,1.10
2023-01-10T13:04:39.176Z,1.50
2023-01-10T13:07:07.306Z,1.10
2023-01-10T13:09:35.527Z,1.13
2023-01-10T13:12:11.777Z,1.30
2023-01-10T13:14:45.693Z,1.20
2023-01-10T13:17:27.219Z,1.80
2023-01-10T13:20:26.663Z,1.50
2023-01-10T13:22:57.169Z,1.40
2023-01-10T13:25:27.392Z,1.37
2023-01-10T13:28:00.002Z,1.40
2023-01-10T13:30:32.090Z,1.13
2023-01-10T13:33:04.705Z,1.57
2023-01-10T13:35:41.266Z,1.53
2023-01-10T13:38:19.357Z,1.20
2023-01-10T13:41:02.822Z,1.60
2023-01-10T13:44:05.467Z,1.53
2023-01-10T13:46:56.586Z,1.80
2023-01-10T13:49:41.768Z,1.73
2023-01-10T13:52:39.829Z,1.67
2023-01-10T13:55:29.411Z,1.53
2023-01-10T13:57:59.140Z,1.53
2023-01-10T14:01:08.523Z,1.30
2023-01-10T14:03:59.244Z,1.37
2023-01-10T14:06:40.858Z,1.33
2023-01-10T14:09:36.001Z,1.83
2023-01-10T14:12:06.691Z,1.70
2023-01-10T14:14:39.200Z,1.70
2023-01-10T14:17:16.286Z,1.20
2023-01-10T14:19:47.746Z,1.53
2023-01-10T14:22:28.340Z,1.50
2023-01-10T14:24:56.419Z,1.33
2023-01-10T14:27:24.884Z,1.17
2023-01-10T14:29:56.785Z,1.60
2023-01-10T14:32:34.578Z,1.67
2023-01-10T14:35:06.801Z,1.70
2023-01-10T14:37:40.430Z,1.57
2023-01-10T14:40:19.024Z,1.33
2023-01-10T14:42:50.107Z,1.60
2023-01-10T14:45:26.891Z,1.60
2023-01-10T14:47:54.775Z,2.53
2023-01-10T14:50:32.170Z,1.87
2023-01-10T14:53:00.517Z,2.00
2023-01-10T14:55:28.383Z,3.73
2023-01-10T14:57:58.102Z,2.90
2023-01-10T15:00:28.143Z,2.27
2023-01-10T15:02:56.094Z,1.80
2023-01-10T15:05:26.110Z,2.43
2023-01-10T15:07:56.187Z,2.23
2023-01-10T15:10:27.960Z,2.20
2023-01-10T15:13:00.569Z,1.83
2023-01-10T15:15:33.391Z,2.37
2023-01-10T15:18:04.414Z,2.30
2023-01-10T15:20:32.340Z,2.80
2023-01-10T15:23:03.086Z,3.23
2023-01-10T15:25:37.841Z,2.63
2023-01-10T15:28:07.025Z,2.17
2023-01-10T15:30:38.283Z,2.10
2023-01-10T15:33:10.294Z,2.53
2023-01-10T15:35:38.195Z,2.10
2023-01-10T15:38:12.880Z,2.13
2023-01-10T15:40:42.548Z,2.57
2023-01-10T15:43:23.827Z,2.20
2023-01-10T15:45:53.076Z,2.23
2023-01-10T15:48:33.662Z,2.47
2023-01-10T15:51:06.016Z,2.10
2023-01-10T15:53:57.223Z,2.73
2023-01-10T15:56:29.543Z,4.00
2023-01-10T15:58:58.880Z,2.63
2023-01-10T16:01:28.830Z,2.03
2023-01-10T16:04:00.210Z,1.97
2023-01-10T16:06:30.799Z,1.90
2023-01-10T16:09:03.138Z,1.80
2023-01-10T16:11:56.475Z,1.80
2023-01-10T16:14:24.701Z,1.33
2023-01-10T16:16:52.754Z,1.40
2023-01-10T16:19:20.590Z,1.47
2023-01-10T16:21:51.779Z,1.33
2023-01-10T16:24:23.217Z,1.50
2023-01-10T16:26:51.754Z,1.60
2023-01-10T16:29:20.975Z,1.70
2023-01-10T16:31:49.028Z,2.33
2023-01-10T16:34:16.831Z,1.53
2023-01-10T16:36:44.676Z,2.10
2023-01-10T16:39:16.749Z,2.40
2023-01-10T16:42:04.630Z,7.93
2023-01-10T16:44:33.274Z,7.57
2023-01-10T16:47:01.993Z,6.43
2023-01-10T16:49:29.853Z,5.43
2023-01-10T16:51:57.818Z,2.40
2023-01-10T16:54:26.456Z,2.20
2023-01-10T16:56:55.708Z,2.03
2023-01-10T16:59:25.428Z,2.23
2023-01-10T17:01:56.291Z,1.50
2023-01-10T17:04:27.961Z,1.43
2023-01-10T17:06:56.524Z,1.90
2023-01-10T17:09:26.262Z,2.37
2023-01-10T17:12:01.872Z,2.00
2023-01-10T17:14:30.954Z,1.43
2023-01-10T17:16:58.756Z,1.90
2023-01-10T17:19:26.520Z,1.97
2023-01-10T17:21:54.592Z,1.70
2023-01-10T17:24:22.349Z,2.20
2023-01-10T17:26:50.164Z,1.50
2023-01-10T17:29:19.317Z,1.67
2023-01-10T17:31:47.301Z,1.63
2023-01-10T17:34:15.105Z,1.60
2023-01-10T17:36:42.921Z,1.70
2023-01-10T17:39:11.298Z,2.17
2023-01-10T17:41:39.098Z,2.00
2023-01-10T17:44:06.992Z,1.73
2023-01-10T17:46:36.217Z,1.60
2023-01-10T17:49:04.449Z,1.47
2023-01-10T17:51:32.381Z,1.60
2023-01-10T17:54:00.124Z,1.80
2023-01-10T17:56:27.872Z,1.73
2023-01-10T17:58:55.615Z,2.90
2023-01-10T18:01:25.931Z,4.53
2023-01-10T18:03:55.270Z,4.93
2023-01-10T18:06:24.693Z,5.30
2023-01-10T18:08:53.110Z,3.77
2023-01-10T18:11:21.063Z,2.97
2023-01-10T18:13:48.945Z,2.90
2023-01-10T18:16:16.786Z,2.57
2023-01-10T18:18:44.648Z,4.80
2023-01-10T18:21:16.238Z,4.53
2023-01-10T18:23:44.708Z,5.80
2023-01-10T18:26:13.750Z,8.13
2023-01-10T18:28:45.138Z,5.13
2023-01-10T18:31:15.777Z,3.37
2023-01-10T18:33:43.965Z,2.33
2023-01-10T18:36:16.324Z,1.83
2023-01-10T18:38:45.600Z,2.20
2023-01-10T18:41:13.564Z,1.90
2023-01-10T18:43:41.482Z,2.20
2023-01-10T18:46:12.801Z,1.90
2023-01-10T18:48:41.006Z,2.03
2023-01-10T18:51:11.612Z,1.40
2023-01-10T18:53:41.562Z,1.63
2023-01-10T18:56:10.666Z,1.63
2023-01-10T18:58:39.928Z,2.00
2023-01-10T19:01:08.909Z,1.67
2023-01-10T19:03:37.162Z,1.90
2023-01-10T19:06:06.667Z,1.87
2023-01-10T19:08:36.226Z,1.93
2023-01-10T19:11:14.870Z,1.73
2023-01-10T19:13:43.306Z,1.77
2023-01-10T19:16:13.256Z,1.90
2023-01-10T19:18:41.602Z,2.10
2023-01-10T19:21:15.004Z,2.37
2023-01-10T19:23:43.240Z,2.40
2023-01-10T19:26:12.543Z,2.20
2023-01-10T19:28:40.959Z,1.70
2023-01-10T19:31:08.760Z,2.00
2023-01-10T19:33:38.245Z,2.07
2023-01-10T19:36:07.359Z,1.87
2023-01-10T19:38:35.350Z,2.20
2023-01-10T19:41:03.423Z,1.60
2023-01-10T19:43:33.711Z,2.53
2023-01-10T19:46:05.488Z,2.10
2023-01-10T19:48:35.679Z,2.17
2023-01-10T19:51:06.665Z,2.37
2023-01-10T19:53:35.508Z,3.10
2023-01-10T19:56:05.358Z,4.20
2023-01-10T19:58:35.090Z,4.13
2023-01-10T20:01:08.817Z,3.70
2023-01-10T20:03:37.807Z,4.63
2023-01-10T20:06:06.836Z,3.67
2023-01-10T20:08:34.731Z,2.17
2023-01-10T20:11:05.187Z,2.20
2023-01-10T20:13:35.513Z,2.00
2023-01-10T20:16:03.727Z,1.70
2023-01-10T20:18:31.886Z,1.83
2023-01-10T20:21:01.261Z,2.63
2023-01-10T20:23:31.990Z,2.03
2023-01-10T20:26:03.206Z,2.07
2023-01-10T20:28:31.736Z,2.47
2023-01-10T20:31:01.054Z,17.13
2023-01-10T20:33:29.300Z,6.00
2023-01-10T20:35:58.317Z,11.00
2023-01-10T20:38:26.640Z,16.20
2023-01-10T20:40:57.651Z,6.93
2023-01-10T20:43:25.650Z,3.40
2023-01-10T20:45:53.529Z,8.03
2023-01-10T20:48:23.202Z,7.03
2023-01-10T20:50:51.054Z,3.67
2023-01-10T20:53:18.894Z,2.10
2023-01-10T20:55:56.317Z,1.80
2023-01-10T20:58:27.028Z,1.80
2023-01-10T21:00:55.049Z,1.70
2023-01-10T21:03:24.271Z,2.43
2023-01-10T21:05:53.958Z,1.90
2023-01-10T21:08:23.455Z,1.73
2023-01-10T21:10:52.436Z,1.70
2023-01-10T21:13:20.507Z,1.70
2023-01-10T21:15:49.113Z,1.50
2023-01-10T21:18:17.242Z,1.60
2023-01-10T21:20:48.152Z,1.57
2023-01-10T21:23:17.520Z,2.00
2023-01-10T21:25:45.838Z,2.10
2023-01-10T21:28:13.621Z,2.00
2023-01-10T21:30:42.136Z,1.73
2023-01-10T21:33:11.654Z,1.63
2023-01-10T21:35:39.846Z,1.83
2023-01-10T21:38:09.104Z,2.07
2023-01-10T21:40:37.071Z,2.07
2023-01-10T21:43:05.162Z,1.73
2023-01-10T21:45:34.800Z,1.57
2023-01-10T21:48:02.606Z,1.70
2023-01-10T21:50:33.483Z,1.40
2023-01-10T21:53:01.245Z,1.73
2023-01-10T21:55:30.343Z,1.43
2023-01-10T21:57:58.210Z,1.60
2023-01-10T22:00:26.188Z,1.77
2023-01-10T22:02:54.044Z,1.57
2023-01-10T22:05:21.889Z,1.50
2023-01-10T22:07:49.771Z,1.87
2023-01-10T22:10:18.064Z,1.57
2023-01-10T22:12:47.204Z,1.73
2023-01-10T22:15:15.322Z,1.70
2023-01-10T22:17:43.120Z,1.30
2023-01-10T22:20:11.818Z,1.37
2023-01-10T22:22:39.662Z,1.30
2023-01-10T22:25:08.632Z,1.30
2023-01-10T22:27:36.439Z,1.17
2023-01-10T22:30:06.702Z,1.30
2023-01-10T22:32:35.626Z,1.13
2023-01-10T22:35:03.429Z,1.37
2023-01-10T22:37:31.281Z,1.40
2023-01-10T22:39:59.139Z,1.40
2023-01-10T22:42:27.108Z,1.33
2023-01-10T22:44:54.907Z,1.43
2023-01-10T22:47:24.076Z,1.53
2023-01-10T22:49:51.993Z,1.10
2023-01-10T22:52:19.835Z,1.40
2023-01-10T22:54:47.702Z,1.47
2023-01-10T22:57:15.534Z,1.50
2023-01-10T22:59:43.353Z,1.20
2023-01-10T23:02:11.111Z,1.40
2023-01-10T23:04:40.223Z,1.10
2023-01-10T23:07:08.008Z,1.20
2023-01-10T23:09:35.855Z,1.23
2023-01-10T23:12:03.599Z,1.70
2023-01-10T23:14:31.402Z,1.60
2023-01-10T23:16:59.249Z,1.33
2023-01-10T23:19:27.133Z,1.20
2023-01-10T23:21:56.312Z,1.97
2023-01-10T23:24:24.072Z,1.33
2023-01-10T23:26:51.871Z,1.27
2023-01-10T23:29:19.685Z,1.40
2023-01-10T23:31:49.590Z,1.43
2023-01-10T23:34:17.515Z,1.57
2023-01-10T23:36:45.365Z,1.70
2023-01-10T23:39:18.722Z,2.00
2023-01-10T23:41:46.500Z,1.53
2023-01-10T23:44:14.423Z,1.57
2023-01-10T23:46:42.219Z,1.33
2023-01-10T23:49:10.119Z,1.20
2023-01-10T23:51:38.285Z,0.90
2023-01-10T23:54:06.515Z,1.73
2023-01-10T23:56:35.645Z,1.50
2023-01-10T23:59:04.152Z,1.70
